Time;durP1;ratioP1;P1;durP2;ratioP2;P2;SDS_P1;SDS_P2;PMS_P1;PMS_P2;Temp;Humidity;BMP_temperature;BMP_pressure;BME280_temperature;BME280_humidity;BME280_pressure;Samples;Min_cycle;Max_cycle;Signal;HPM_P1;HPM_P2
2023/06/12 00:00:47;;;;;;;2.85;2.65;;;10.40;99.90;;;;;;4937548;28;20097;-63
2023/06/12 00:03:15;;;;;;;2.17;1.98;;;10.40;99.90;;;;;;4936302;28;20178;-67
2023/06/12 00:05:43;;;;;;;2.83;2.58;;;10.40;99.90;;;;;;4943929;28;20039;-66
2023/06/12 00:08:13;;;;;;;1.90;1.80;;;10.40;99.90;;;;;;4936763;28;20441;-62
2023/06/12 00:10:42;;;;;;;;;;;10.40;99.90;;;;;;4941630;28;20039;-72
2023/06/12 00:13:09;;;;;;;2.65;2.33;;;10.40;99.90;;;;;;4939940;28;19978;-62
2023/06/12 00:15:36;;;;;;;2.20;2.00;;;10.30;99.90;;;;;;4939763;28;20054;-64
2023/06/12 00:18:04;;;;;;;2.85;2.60;;;10.30;99.90;;;;;;4942804;28;20075;-69
2023/06/12 00:20:32;;;;;;;3.08;2.00;;;10.30;99.90;;;;;;4942689;28;20043;-63
2023/06/12 00:22:59;;;;;;;2.83;2.20;;;10.30;99.90;;;;;;4937300;28;20735;-65
2023/06/12 00:25:26;;;;;;;5.22;2.38;;;10.30;99.90;;;;;;4943165;28;20498;-64
2023/06/12 00:27:53;;;;;;;4.88;2.17;;;10.40;99.90;;;;;;4939556;28;20060;-67
2023/06/12 00:30:20;;;;;;;2.17;1.98;;;10.40;99.90;;;;;;4936413;28;20043;-65
2023/06/12 00:32:47;;;;;;;2.70;1.90;;;10.40;99.90;;;;;;4940284;28;20995;-66
2023/06/12 00:35:19;;;;;;;3.83;2.25;;;10.40;99.90;;;;;;4938822;28;20103;-63
2023/06/12 00:37:47;;;;;;;2.80;2.30;;;10.30;99.90;;;;;;4937867;28;20082;-66
2023/06/12 00:40:15;;;;;;;2.60;2.40;;;10.30;99.90;;;;;;4939285;28;20047;-64
2023/06/12 00:42:47;;;;;;;2.42;1.90;;;10.30;99.90;;;;;;4935826;28;20487;-63
2023/06/12 00:45:16;;;;;;;4.18;2.05;;;10.30;99.90;;;;;;4942125;28;20051;-65
2023/06/12 00:47:45;;;;;;;8.43;2.22;;;10.30;99.90;;;;;;4950840;28;20052;-64
2023/06/12 00:50:14;;;;;;;1.70;1.60;;;10.30;99.90;;;;;;4953523;28;20059;-66
2023/06/12 00:52:44;;;;;;;2.72;2.50;;;10.20;99.90;;;;;;4936460;28;20062;-68
2023/06/12 00:55:11;;;;;;;4.47;2.55;;;10.20;99.90;;;;;;4937776;28;20188;-65
2023/06/12 00:57:38;;;;;;;3.20;2.08;;;10.20;99.90;;;;;;4940828;28;20105;-64
2023/06/12 01:00:07;;;;;;;4.85;2.08;;;10.20;99.90;;;;;;4940529;28;20047;-72
2023/06/12 01:02:39;;;;;;;2.50;2.00;;;10.10;99.90;;;;;;4934378;28;20056;-72
2023/06/12 01:05:08;;;;;;;2.03;1.83;;;10.10;99.90;;;;;;4949740;28;20059;-65
2023/06/12 01:07:55;;;;;;;2.88;2.67;;;10.10;99.90;;;;;;4936965;28;20420;-66
2023/06/12 01:11:03;;;;;;;2.17;1.90;;;10.10;99.90;;;;;;4932588;28;20071;-64
2023/06/12 01:13:30;;;;;;;2.40;2.20;;;10.10;99.90;;;;;;4912118;29;20174;-62
2023/06/12 01:15:58;;;;;;;2.05;1.85;;;10.10;99.90;;;;;;4937338;28;20056;-65
2023/06/12 01:18:25;;;;;;;2.78;2.58;;;10.10;99.90;;;;;;4937634;28;20048;-62
2023/06/12 01:20:55;;;;;;;1.90;1.80;;;10.10;99.90;;;;;;4934341;28;20055;-65
2023/06/12 01:23:43;;;;;;;2.03;1.77;;;10.10;99.90;;;;;;4936032;28;20078;-71
2023/06/12 01:26:36;;;;;;;3.38;2.30;;;10.10;99.90;;;;;;4943397;28;20528;-64
2023/06/12 01:29:28;;;;;;;3.22;2.00;;;10.10;99.90;;;;;;4942627;28;20047;-63
2023/06/12 01:32:15;;;;;;;2.83;2.20;;;10.10;99.90;;;;;;4943250;28;20059;-63
2023/06/12 01:34:57;;;;;;;2.35;2.15;;;10.10;99.90;;;;;;4953081;28;20753;-63
2023/06/12 01:37:44;;;;;;;2.45;1.60;;;10.10;99.90;;;;;;4924707;28;20469;-67
2023/06/12 01:40:19;;;;;;;2.42;2.22;;;10.10;99.90;;;;;;4947814;28;20060;-71
2023/06/12 01:42:49;;;;;;;1.90;1.80;;;10.00;99.90;;;;;;4930172;28;20070;-66
2023/06/12 01:45:17;;;;;;;3.53;2.00;;;10.00;99.90;;;;;;4945050;28;20236;-73
2023/06/12 01:47:44;;;;;;;3.78;2.33;;;10.00;99.90;;;;;;4933981;28;20080;-63
2023/06/12 01:50:13;;;;;;;2.70;2.50;;;10.00;99.90;;;;;;4951557;28;20113;-62
2023/06/12 01:52:41;;;;;;;2.30;2.10;;;10.00;99.90;;;;;;4949561;28;20078;-73
2023/06/12 01:55:09;;;;;;;2.33;2.13;;;10.00;99.90;;;;;;4947734;28;20173;-69
2023/06/12 01:57:38;;;;;;;3.63;2.20;;;10.00;99.90;;;;;;4954283;28;20059;-62
2023/06/12 02:00:09;;;;;;;4.40;3.13;;;10.00;99.90;;;;;;4942052;28;20043;-63
2023/06/12 02:02:53;;;;;;;4.35;1.75;;;10.00;99.90;;;;;;4931217;28;20062;-64
2023/06/12 02:05:24;;;;;;;2.83;2.17;;;10.00;99.90;;;;;;4944680;28;20138;-62
2023/06/12 02:07:51;;;;;;;3.20;2.20;;;10.10;99.90;;;;;;4933325;28;20056;-64
2023/06/12 02:10:18;;;;;;;2.50;2.30;;;10.10;99.90;;;;;;4936796;28;20059;-71
2023/06/12 02:12:45;;;;;;;2.58;2.35;;;10.10;99.90;;;;;;4934532;28;20088;-63
2023/06/12 02:15:12;;;;;;;3.90;2.72;;;10.10;99.90;;;;;;4953099;28;20055;-68
2023/06/12 02:17:39;;;;;;;4.43;2.15;;;10.20;99.90;;;;;;4943740;28;20047;-65
2023/06/12 02:20:07;;;;;;;4.82;2.40;;;10.20;99.90;;;;;;4954692;28;20047;-64
2023/06/12 02:22:34;;;;;;;4.35;2.78;;;10.20;99.90;;;;;;4937590;28;20051;-62
2023/06/12 02:25:02;;;;;;;3.67;3.20;;;10.20;99.90;;;;;;4959839;28;20074;-65
2023/06/12 02:27:29;;;;;;;3.50;2.35;;;10.20;99.90;;;;;;4947101;28;20054;-68
2023/06/12 02:29:56;;;;;;;4.13;2.45;;;10.20;99.90;;;;;;4956355;28;20051;-65
2023/06/12 02:32:23;;;;;;;4.57;2.60;;;10.20;99.90;;;;;;4956473;28;20497;-71
2023/06/12 02:34:50;;;;;;;2.97;2.78;;;10.20;99.90;;;;;;4933681;28;20051;-63
2023/06/12 02:37:18;;;;;;;2.80;2.13;;;10.30;99.90;;;;;;4933923;28;20063;-63
2023/06/12 02:39:48;;;;;;;2.33;2.15;;;10.30;99.90;;;;;;4956792;28;20052;-63
2023/06/12 02:42:15;;;;;;;2.80;2.50;;;10.30;99.90;;;;;;4933745;28;20066;-68
2023/06/12 02:44:43;;;;;;;2.35;2.15;;;10.30;99.90;;;;;;4934053;28;20054;-62
2023/06/12 02:47:10;;;;;;;3.85;3.17;;;10.40;99.90;;;;;;4939359;28;20047;-66
2023/06/12 02:49:44;;;;;;;3.22;2.72;;;10.30;99.90;;;;;;4941167;28;20051;-63
2023/06/12 02:52:18;;;;;;;2.50;2.30;;;10.40;99.90;;;;;;4940319;28;20793;-70
2023/06/12 02:54:45;;;;;;;3.95;2.28;;;10.40;99.90;;;;;;4939688;28;20784;-64
2023/06/12 02:57:12;;;;;;;2.63;2.42;;;10.50;99.90;;;;;;4954961;28;20367;-63
2023/06/12 02:59:39;;;;;;;3.75;3.10;;;10.50;99.90;;;;;;4940853;28;20055;-62
2023/06/12 03:02:11;;;;;;;2.42;2.15;;;10.50;99.90;;;;;;4954887;28;20058;-63
2023/06/12 03:04:45;;;;;;;3.42;2.05;;;10.60;99.90;;;;;;4940657;28;20051;-63
2023/06/12 03:07:16;;;;;;;3.47;2.63;;;10.60;99.90;;;;;;4934750;28;20126;-70
2023/06/12 03:09:44;;;;;;;2.97;2.75;;;10.60;99.90;;;;;;4952574;28;20078;-64
2023/06/12 03:12:11;;;;;;;3.83;2.45;;;10.70;99.90;;;;;;4937411;28;20044;-71
2023/06/12 03:14:39;;;;;;;3.70;2.38;;;10.80;99.90;;;;;;4943600;28;20878;-72
2023/06/12 03:17:06;;;;;;;4.00;2.80;;;10.80;99.90;;;;;;4950620;28;20055;-64
2023/06/12 03:19:33;;;;;;;2.05;1.95;;;10.90;99.90;;;;;;4956996;28;20043;-62
2023/06/12 03:22:00;;;;;;;2.97;2.78;;;10.90;99.90;;;;;;4940789;28;20047;-67
2023/06/12 03:24:29;;;;;;;5.38;3.28;;;11.00;99.90;;;;;;4937745;28;20051;-64
2023/06/12 03:26:59;;;;;;;3.08;2.80;;;11.00;99.90;;;;;;4954871;28;20154;-63
2023/06/12 03:29:29;;;;;;;2.92;2.20;;;11.10;99.90;;;;;;4956157;28;20059;-67
2023/06/12 03:31:56;;;;;;;2.30;2.10;;;11.20;99.90;;;;;;4948745;28;20067;-65
2023/06/12 03:34:25;;;;;;;2.85;2.38;;;11.20;99.90;;;;;;4936953;28;20048;-67
2023/06/12 03:36:53;;;;;;;2.95;2.15;;;11.30;99.90;;;;;;4937943;28;20051;-63
2023/06/12 03:39:25;;;;;;;3.20;2.28;;;11.40;99.90;;;;;;4952090;28;20059;-63
2023/06/12 03:41:56;;;;;;;3.05;2.40;;;11.40;99.90;;;;;;4951811;28;20052;-65
2023/06/12 03:44:31;;;;;;;4.05;2.53;;;11.50;99.90;;;;;;4938456;28;20051;-70
2023/06/12 03:46:58;;;;;;;5.18;2.40;;;11.60;99.90;;;;;;4938424;28;20079;-64
2023/06/12 03:49:26;;;;;;;4.35;2.25;;;11.60;99.90;;;;;;4935667;28;20043;-64
2023/06/12 03:51:53;;;;;;;3.58;2.05;;;11.70;99.90;;;;;;4947887;28;20064;-63
2023/06/12 03:54:21;;;;;;;4.82;2.78;;;11.70;99.90;;;;;;4953372;28;20048;-68
2023/06/12 03:56:48;;;;;;;3.03;2.22;;;11.80;99.90;;;;;;4936968;28;20082;-66
2023/06/12 03:59:18;;;;;;;1.85;1.75;;;11.80;99.90;;;;;;4939552;28;20063;-70
2023/06/12 04:01:48;;;;;;;2.90;2.47;;;11.90;99.90;;;;;;4932553;28;20574;-64
2023/06/12 04:04:15;;;;;;;2.75;2.17;;;12.00;99.90;;;;;;4946859;28;20067;-69
2023/06/12 04:06:42;;;;;;;4.22;2.17;;;12.00;99.90;;;;;;4932987;28;20053;-64
2023/06/12 04:09:14;;;;;;;3.25;2.92;;;12.10;99.90;;;;;;4938281;28;20145;-63
2023/06/12 04:11:43;;;;;;;6.22;2.13;;;12.20;99.90;;;;;;4948931;28;20459;-62
2023/06/12 04:14:10;;;;;;;3.53;2.13;;;12.30;99.90;;;;;;4952320;28;20079;-62
2023/06/12 04:16:37;;;;;;;3.40;2.50;;;12.30;99.90;;;;;;4934544;28;20051;-65
2023/06/12 04:19:05;;;;;;;2.90;2.53;;;12.40;99.90;;;;;;4937555;28;20994;-63
2023/06/12 04:21:35;;;;;;;4.88;1.95;;;12.50;99.90;;;;;;4935286;28;20052;-69
2023/06/12 04:24:04;;;;;;;5.22;2.20;;;12.60;99.90;;;;;;4940286;28;20047;-66
2023/06/12 04:26:34;;;;;;;5.82;2.72;;;12.70;99.90;;;;;;4937209;28;20051;-64
2023/06/12 04:29:02;;;;;;;8.48;2.10;;;12.80;99.90;;;;;;4951934;28;20150;-69
2023/06/12 04:31:30;;;;;;;2.83;1.75;;;12.80;99.90;;;;;;4936329;28;20052;-64
2023/06/12 04:33:58;;;;;;;4.05;2.05;;;12.90;99.90;;;;;;4938677;28;20052;-65
2023/06/12 04:36:27;;;;;;;2.40;2.20;;;13.00;99.90;;;;;;4940776;28;20055;-70
2023/06/12 04:38:56;;;;;;;3.20;1.65;;;13.10;99.90;;;;;;4942527;28;20071;-64
2023/06/12 04:41:24;;;;;;;5.28;1.90;;;13.10;99.90;;;;;;4951125;28;20051;-68
2023/06/12 04:43:58;;;;;;;2.22;2.03;;;13.20;99.90;;;;;;4937902;28;20043;-62
2023/06/12 04:46:28;;;;;;;7.70;3.35;;;13.20;99.90;;;;;;4937408;28;20057;-63
2023/06/12 04:48:55;;;;;;;4.00;2.35;;;13.30;99.90;;;;;;4944966;28;20045;-62
2023/06/12 04:51:26;;;;;;;2.13;1.45;;;13.30;99.90;;;;;;4938199;28;20066;-66
2023/06/12 04:53:55;;;;;;;2.92;1.73;;;13.40;99.90;;;;;;4945637;28;20062;-62
2023/06/12 04:56:22;;;;;;;2.47;2.10;;;13.50;99.90;;;;;;4946100;28;20074;-64
2023/06/12 04:58:50;;;;;;;1.85;1.67;;;13.50;99.90;;;;;;4954858;28;20662;-68
2023/06/12 05:01:19;;;;;;;2.85;2.53;;;13.60;99.90;;;;;;4938612;28;20047;-64
2023/06/12 05:03:49;;;;;;;2.42;1.98;;;13.70;99.90;;;;;;4953167;28;20063;-64
2023/06/12 05:06:16;;;;;;;2.45;2.22;;;13.80;99.90;;;;;;4940027;28;20058;-66
2023/06/12 05:08:45;;;;;;;2.38;2.17;;;13.80;99.90;;;;;;4954290;28;20805;-64
2023/06/12 05:11:12;;;;;;;4.85;3.38;;;13.90;99.90;;;;;;4941512;28;20044;-63
2023/06/12 05:13:40;;;;;;;3.15;2.10;;;14.00;99.90;;;;;;4942817;28;20055;-66
2023/06/12 05:16:07;;;;;;;2.55;2.35;;;14.10;99.90;;;;;;4943395;28;20150;-62
2023/06/12 05:18:34;;;;;;;3.47;1.70;;;14.20;99.90;;;;;;4956332;28;20058;-63
2023/06/12 05:21:03;;;;;;;2.58;1.58;;;14.30;99.90;;;;;;4941168;28;20074;-66
2023/06/12 05:23:30;;;;;;;5.47;2.45;;;14.30;99.90;;;;;;4939800;28;20055;-67
2023/06/12 05:25:57;;;;;;;7.53;2.42;;;14.40;99.90;;;;;;4936914;28;20070;-62
2023/06/12 05:28:25;;;;;;;2.63;2.05;;;14.50;99.90;;;;;;4941730;28;20059;-62
2023/06/12 05:30:52;;;;;;;4.10;1.80;;;14.50;99.90;;;;;;4938208;28;20402;-64
2023/06/12 05:33:20;;;;;;;6.75;2.03;;;14.60;99.90;;;;;;4940258;28;20078;-65
2023/06/12 05:35:49;;;;;;;3.83;1.92;;;14.70;99.90;;;;;;4940168;28;20229;-61
2023/06/12 05:38:16;;;;;;;2.28;2.15;;;14.80;99.90;;;;;;4945203;28;20159;-70
2023/06/12 05:40:43;;;;;;;2.42;2.15;;;14.90;99.90;;;;;;4937530;28;20086;-75
2023/06/12 05:43:12;;;;;;;4.93;2.30;;;15.00;99.90;;;;;;4949642;28;20086;-70
2023/06/12 05:45:39;;;;;;;2.50;1.80;;;15.10;99.90;;;;;;4952094;28;20082;-67
2023/06/12 05:48:07;;;;;;;4.45;1.52;;;15.20;99.90;;;;;;4939791;28;20055;-76
2023/06/12 05:50:35;;;;;;;5.18;2.85;;;15.20;99.90;;;;;;4960912;28;20073;-62
2023/06/12 05:53:05;;;;;;;1.73;1.27;;;15.40;99.90;;;;;;4949448;28;20206;-64
2023/06/12 05:55:35;;;;;;;5.28;2.25;;;15.40;99.90;;;;;;4938091;28;20035;-67
2023/06/12 05:58:02;;;;;;;4.20;1.60;;;15.50;99.90;;;;;;4958746;28;20746;-68
2023/06/12 06:00:32;;;;;;;;;;;15.50;99.90;;;;;;4956105;28;20146;-67
2023/06/12 06:03:04;;;;;;;4.68;1.60;;;15.60;99.90;;;;;;4942309;28;19966;-67
2023/06/12 06:05:32;;;;;;;3.83;2.35;;;15.70;99.90;;;;;;4948936;28;20043;-64
2023/06/12 06:08:10;;;;;;;2.75;1.77;;;15.80;99.90;;;;;;4938338;28;20077;-63
2023/06/12 06:10:42;;;;;;;2.22;2.13;;;15.90;99.90;;;;;;4942983;28;20146;-66
2023/06/12 06:13:09;;;;;;;3.22;1.88;;;15.90;99.90;;;;;;4946339;28;20429;-62
2023/06/12 06:15:36;;;;;;;1.98;1.80;;;16.00;99.90;;;;;;4936825;28;20141;-67
2023/06/12 06:18:06;;;;;;;2.80;1.77;;;16.00;99.90;;;;;;4941337;28;20651;-63
2023/06/12 06:20:34;;;;;;;3.00;2.20;;;16.10;99.90;;;;;;4949042;28;20864;-64
2023/06/12 06:23:01;;;;;;;2.38;1.45;;;16.20;99.90;;;;;;4942759;28;20051;-68
2023/06/12 06:25:31;;;;;;;2.70;2.00;;;16.30;99.90;;;;;;4941451;28;20055;-69
2023/06/12 06:27:58;;;;;;;2.55;2.00;;;16.40;99.90;;;;;;4953915;28;20052;-69
2023/06/12 06:30:26;;;;;;;2.83;1.83;;;16.50;99.90;;;;;;4942459;28;20050;-70
2023/06/12 06:32:52;;;;;;;3.45;1.88;;;16.60;99.90;;;;;;4944914;28;20043;-64
2023/06/12 06:35:23;;;;;;;2.63;2.00;;;16.80;99.90;;;;;;4941492;28;20142;-71
2023/06/12 06:37:50;;;;;;;1.80;1.65;;;16.80;99.80;;;;;;4959228;28;20051;-66
2023/06/12 06:40:17;;;;;;;1.85;1.73;;;16.90;99.40;;;;;;4956852;28;20055;-69
2023/06/12 06:42:44;;;;;;;3.90;1.90;;;16.90;99.30;;;;;;4955990;28;20056;-64
2023/06/12 06:45:12;;;;;;;4.80;2.88;;;17.00;99.20;;;;;;4951890;28;20143;-63
2023/06/12 06:47:42;;;;;;;2.25;1.73;;;17.10;99.30;;;;;;4951927;28;20387;-73
2023/06/12 06:50:10;;;;;;;2.83;2.25;;;17.20;98.50;;;;;;4939544;28;20054;-71
2023/06/12 06:52:38;;;;;;;5.05;1.80;;;17.20;96.60;;;;;;4939711;28;20053;-62
2023/06/12 06:55:06;;;;;;;2.83;1.50;;;17.30;97.00;;;;;;4956224;28;20075;-62
2023/06/12 06:57:33;;;;;;;3.55;1.80;;;17.30;96.70;;;;;;4935866;28;20058;-65
2023/06/12 07:00:05;;;;;;;2.72;1.60;;;17.40;96.20;;;;;;4945155;28;20047;-63
2023/06/12 07:02:33;;;;;;;4.47;1.85;;;17.50;96.40;;;;;;4954216;28;20047;-65
2023/06/12 07:05:01;;;;;;;1.60;1.50;;;17.60;95.70;;;;;;4941455;28;20055;-67
2023/06/12 07:07:28;;;;;;;3.13;1.95;;;17.70;94.90;;;;;;4944050;28;20051;-64
2023/06/12 07:09:56;;;;;;;6.38;2.40;;;17.80;95.40;;;;;;4940066;28;20071;-63
2023/06/12 07:12:23;;;;;;;6.40;2.15;;;17.80;93.70;;;;;;4949467;28;20141;-66
2023/06/12 07:14:50;;;;;;;3.67;2.13;;;18.00;92.60;;;;;;4951979;28;20946;-62
2023/06/12 07:17:18;;;;;;;1.77;1.55;;;18.00;93.00;;;;;;4957230;28;20055;-63
2023/06/12 07:19:45;;;;;;;2.90;1.80;;;18.10;93.30;;;;;;4940141;28;20052;-71
2023/06/12 07:22:12;;;;;;;2.78;1.85;;;18.20;92.20;;;;;;4950105;28;20047;-65
2023/06/12 07:24:39;;;;;;;3.75;1.70;;;18.30;92.80;;;;;;4938853;28;20930;-62
2023/06/12 07:27:06;;;;;;;7.50;1.80;;;18.40;92.40;;;;;;4943184;28;20047;-64
2023/06/12 07:29:34;;;;;;;2.90;1.65;;;18.40;92.50;;;;;;4940855;28;20411;-66
2023/06/12 07:32:02;;;;;;;2.20;1.83;;;18.50;92.40;;;;;;4952498;28;20077;-66
2023/06/12 07:34:30;;;;;;;2.63;1.67;;;18.60;93.10;;;;;;4939656;28;20043;-62
2023/06/12 07:36:58;;;;;;;9.07;2.33;;;18.80;92.40;;;;;;4940162;28;20057;-65
2023/06/12 07:39:25;;;;;;;5.85;1.67;;;18.90;92.70;;;;;;4939543;28;20071;-67
2023/06/12 07:41:53;;;;;;;4.05;1.88;;;19.10;92.10;;;;;;4957161;28;20141;-73
2023/06/12 07:44:21;;;;;;;1.98;1.17;;;19.10;91.50;;;;;;4937581;28;20048;-64
2023/06/12 07:46:48;;;;;;;1.67;1.40;;;19.10;90.90;;;;;;4954640;28;20077;-65
2023/06/12 07:49:16;;;;;;;3.75;2.30;;;19.30;90.80;;;;;;4936123;28;20047;-66
2023/06/12 07:51:45;;;;;;;2.80;1.10;;;19.50;90.30;;;;;;4937242;28;20055;-69
2023/06/12 07:54:12;;;;;;;2.22;1.45;;;19.40;89.70;;;;;;4941187;28;20442;-63
2023/06/12 07:56:40;;;;;;;2.65;1.58;;;19.50;90.30;;;;;;4963724;28;20488;-63
2023/06/12 07:59:12;;;;;;;5.45;1.63;;;19.60;89.30;;;;;;4940955;28;20057;-65
2023/06/12 08:01:46;;;;;;;5.80;1.70;;;19.70;88.50;;;;;;4951096;28;20079;-66
2023/06/12 08:04:16;;;;;;;8.43;1.73;;;19.70;88.40;;;;;;4940050;28;20059;-69
2023/06/12 08:06:45;;;;;;;4.43;1.90;;;20.00;87.70;;;;;;4940711;28;20086;-66
2023/06/12 08:09:14;;;;;;;1.90;1.30;;;20.00;87.60;;;;;;4940571;28;20494;-64
2023/06/12 08:11:41;;;;;;;3.05;1.60;;;20.10;86.70;;;;;;4936763;28;20052;-63
2023/06/12 08:14:09;;;;;;;5.65;1.85;;;20.20;87.90;;;;;;4941906;28;20051;-63
2023/06/12 08:16:38;;;;;;;1.85;1.63;;;20.30;86.60;;;;;;4952365;28;20441;-64
2023/06/12 08:19:06;;;;;;;1.95;1.27;;;20.30;86.40;;;;;;4939310;28;20470;-66
2023/06/12 08:21:35;;;;;;;4.38;1.60;;;20.30;86.90;;;;;;4953838;28;20157;-71
2023/06/12 08:24:03;;;;;;;1.63;1.42;;;20.30;85.30;;;;;;4940982;28;20051;-69
2023/06/12 08:26:30;;;;;;;5.43;1.85;;;20.40;85.60;;;;;;4941956;28;20055;-65
2023/06/12 08:28:57;;;;;;;6.15;1.63;;;20.40;85.80;;;;;;4959194;28;20054;-75
2023/06/12 08:31:33;;;;;;;2.42;1.50;;;20.40;85.80;;;;;;4948295;28;20450;-63
2023/06/12 08:34:00;;;;;;;4.88;1.35;;;20.40;84.60;;;;;;4944955;28;20043;-64
2023/06/12 08:36:27;;;;;;;1.75;1.23;;;20.50;88.30;;;;;;4935766;28;20138;-64
2023/06/12 08:38:54;;;;;;;8.55;2.47;;;20.50;84.70;;;;;;4940583;28;20689;-64
2023/06/12 08:41:24;;;;;;;4.05;1.45;;;20.60;86.20;;;;;;4959304;28;20122;-62
2023/06/12 08:43:53;;;;;;;2.95;2.65;;;20.60;83.90;;;;;;4941711;28;20070;-65
2023/06/12 08:46:28;;;;;;;2.92;1.52;;;20.70;85.00;;;;;;4957247;28;20056;-66
2023/06/12 08:48:59;;;;;;;3.53;1.38;;;20.80;86.70;;;;;;4938293;28;20062;-68
2023/06/12 08:51:27;;;;;;;2.05;1.60;;;20.90;82.30;;;;;;4941329;28;20070;-66
2023/06/12 08:53:56;;;;;;;1.65;1.33;;;20.90;81.90;;;;;;4940122;28;20358;-67
2023/06/12 08:56:25;;;;;;;4.05;1.77;;;20.90;80.20;;;;;;4942299;28;20054;-62
2023/06/12 08:58:52;;;;;;;1.45;1.23;;;21.00;81.80;;;;;;4942133;28;20039;-67
2023/06/12 09:01:20;;;;;;;1.88;1.77;;;21.00;78.70;;;;;;4931202;28;20478;-67
2023/06/12 09:03:52;;;;;;;2.35;1.30;;;21.00;77.40;;;;;;4936101;28;20215;-65
2023/06/12 09:06:21;;;;;;;1.65;1.52;;;21.10;78.80;;;;;;4942122;28;20042;-65
2023/06/12 09:08:48;;;;;;;3.30;1.40;;;21.20;78.80;;;;;;4940536;28;20493;-63
2023/06/12 09:11:15;;;;;;;1.88;1.50;;;21.20;80.00;;;;;;4937467;28;20508;-65
2023/06/12 09:13:42;;;;;;;1.92;1.50;;;21.20;77.60;;;;;;4939847;28;20039;-73
2023/06/12 09:16:12;;;;;;;3.17;1.42;;;21.20;79.40;;;;;;4940898;28;20043;-63
2023/06/12 09:18:49;;;;;;;1.57;1.40;;;21.20;79.00;;;;;;4933560;28;20035;-63
2023/06/12 09:21:16;;;;;;;2.22;1.42;;;21.40;77.20;;;;;;4936473;28;20328;-64
2023/06/12 09:23:45;;;;;;;1.98;1.35;;;21.60;77.00;;;;;;4938515;28;20114;-65
2023/06/12 09:26:15;;;;;;;1.90;1.60;;;21.70;77.50;;;;;;4953604;28;20039;-64
2023/06/12 09:28:43;;;;;;;3.22;1.30;;;21.70;79.50;;;;;;4946467;28;20043;-63
2023/06/12 09:31:14;;;;;;;1.38;1.20;;;21.80;77.50;;;;;;4935431;28;20039;-62
2023/06/12 09:33:41;;;;;;;4.78;1.35;;;21.90;77.70;;;;;;4940215;28;20082;-63
2023/06/12 09:36:11;;;;;;;5.53;1.40;;;22.00;79.30;;;;;;4937045;28;20134;-65
2023/06/12 09:38:39;;;;;;;1.95;1.25;;;22.20;76.90;;;;;;4939914;28;20203;-70
2023/06/12 09:41:24;;;;;;;1.65;1.48;;;22.10;75.20;;;;;;4937856;28;20090;-62
2023/06/12 09:44:02;;;;;;;9.27;1.65;;;22.20;77.40;;;;;;4941337;28;20047;-63
2023/06/12 09:46:30;;;;;;;1.88;1.40;;;22.20;75.10;;;;;;4943627;28;20458;-67
2023/06/12 09:48:58;;;;;;;3.10;1.40;;;22.30;75.30;;;;;;4936626;28;20098;-63
2023/06/12 09:51:46;;;;;;;1.73;1.58;;;22.20;74.80;;;;;;4935775;28;20031;-63
2023/06/12 09:54:16;;;;;;;1.23;1.13;;;22.30;74.60;;;;;;4939081;28;20074;-63
2023/06/12 09:56:47;;;;;;;2.00;1.67;;;22.50;74.80;;;;;;4941997;28;20556;-65
2023/06/12 09:59:18;;;;;;;1.23;1.13;;;22.60;74.10;;;;;;4935975;28;20136;-69
2023/06/12 10:02:07;;;;;;;2.33;1.45;;;22.50;74.50;;;;;;4939774;28;20074;-62
2023/06/12 10:05:01;;;;;;;1.63;0.98;;;22.50;73.50;;;;;;4937731;28;20082;-65
2023/06/12 10:07:32;;;;;;;2.67;1.20;;;22.70;75.10;;;;;;4939955;28;20050;-67
2023/06/12 10:10:02;;;;;;;2.25;1.50;;;22.70;74.70;;;;;;4940966;28;20516;-68
2023/06/12 10:12:31;;;;;;;1.92;1.40;;;22.80;74.20;;;;;;4937003;28;20039;-66
2023/06/12 10:14:59;;;;;;;2.63;1.88;;;22.90;73.70;;;;;;4943043;28;20063;-64
2023/06/12 10:17:28;;;;;;;2.88;1.70;;;23.10;75.10;;;;;;4937731;28;20058;-64
2023/06/12 10:20:06;;;;;;;1.85;1.67;;;23.10;74.90;;;;;;4941136;28;20474;-66
2023/06/12 10:22:33;;;;;;;3.50;1.45;;;23.20;73.60;;;;;;4934694;28;20048;-65
2023/06/12 10:25:02;;;;;;;1.75;1.42;;;23.20;73.60;;;;;;4941325;28;20047;-63
2023/06/12 10:27:30;;;;;;;1.75;1.25;;;23.40;73.80;;;;;;4957512;28;20055;-68
2023/06/12 10:29:58;;;;;;;2.15;1.58;;;23.50;73.20;;;;;;4939951;28;20043;-63
2023/06/12 10:32:31;;;;;;;2.70;1.63;;;23.50;73.20;;;;;;4934441;28;20078;-66
2023/06/12 10:35:01;;;;;;;4.18;1.08;;;23.50;73.00;;;;;;4944822;28;20494;-67
2023/06/12 10:37:38;;;;;;;1.17;1.08;;;23.80;74.50;;;;;;4944278;28;20043;-63
2023/06/12 10:40:34;;;;;;;2.05;1.60;;;24.00;73.40;;;;;;4940854;28;20102;-67
2023/06/12 10:43:13;;;;;;;2.85;1.50;;;23.90;72.20;;;;;;4937955;28;20075;-65
2023/06/12 10:45:56;;;;;;;1.75;1.33;;;23.80;72.60;;;;;;4937600;28;20059;-74
2023/06/12 10:48:24;;;;;;;1.65;1.17;;;23.90;72.30;;;;;;4941495;28;20047;-65
2023/06/12 10:50:53;;;;;;;6.28;1.70;;;23.80;71.60;;;;;;4939233;28;20051;-66
2023/06/12 10:53:29;;;;;;;1.90;1.30;;;23.90;72.10;;;;;;4941440;28;20046;-65
2023/06/12 10:56:06;;;;;;;1.30;1.20;;;24.10;72.90;;;;;;4935979;28;20458;-64
2023/06/12 10:58:37;;;;;;;4.82;1.40;;;24.10;72.50;;;;;;4938157;28;20052;-63
2023/06/12 11:01:14;;;;;;;5.07;2.00;;;23.90;69.90;;;;;;4944580;28;20110;-64
2023/06/12 11:03:42;;;;;;;1.90;1.52;;;24.00;69.50;;;;;;4939441;28;20060;-69
2023/06/12 11:06:15;;;;;;;2.35;1.38;;;24.10;71.50;;;;;;4939325;28;20039;-64
2023/06/12 11:08:43;;;;;;;3.00;1.15;;;24.20;71.20;;;;;;4940626;28;20044;-63
2023/06/12 11:11:12;;;;;;;2.38;1.00;;;24.30;70.90;;;;;;4941752;28;21086;-65
2023/06/12 11:13:43;;;;;;;3.40;1.58;;;24.20;70.90;;;;;;4935694;28;20155;-64
2023/06/12 11:16:15;;;;;;;6.53;1.60;;;24.40;70.80;;;;;;4942323;28;20094;-71
2023/06/12 11:18:42;;;;;;;1.70;1.40;;;24.50;70.80;;;;;;4944377;28;20067;-67
2023/06/12 11:21:11;;;;;;;1.65;1.25;;;24.50;70.30;;;;;;4942600;28;20043;-67
2023/06/12 11:23:43;;;;;;;3.92;1.63;;;24.70;71.20;;;;;;4941779;28;20371;-64
2023/06/12 11:26:10;;;;;;;2.00;1.00;;;24.90;69.50;;;;;;4945617;28;20484;-67
2023/06/12 11:28:37;;;;;;;3.03;1.20;;;24.80;69.00;;;;;;4941630;28;20039;-64
2023/06/12 11:31:07;;;;;;;4.00;1.20;;;24.80;69.70;;;;;;4944482;28;20047;-63
2023/06/12 11:33:39;;;;;;;1.40;1.20;;;24.70;69.10;;;;;;4942854;28;20117;-66
2023/06/12 11:36:06;;;;;;;1.55;1.45;;;24.70;69.10;;;;;;4944838;28;20039;-66
2023/06/12 11:38:33;;;;;;;5.65;1.85;;;24.80;69.60;;;;;;4937372;28;20130;-66
2023/06/12 11:41:03;;;;;;;2.03;1.20;;;25.00;69.20;;;;;;4942284;28;20051;-67
2023/06/12 11:43:31;;;;;;;1.98;1.23;;;25.10;69.00;;;;;;4943350;28;20052;-72
2023/06/12 11:46:04;;;;;;;1.33;1.17;;;25.20;70.40;;;;;;4934527;28;20051;-69
2023/06/12 11:48:32;;;;;;;3.35;1.20;;;25.20;68.60;;;;;;4942799;28;20395;-67
2023/06/12 11:51:02;;;;;;;3.33;1.35;;;25.10;68.20;;;;;;4942259;28;20162;-76
2023/06/12 11:53:31;;;;;;;5.45;1.38;;;25.00;67.60;;;;;;4941463;28;20083;-65
2023/06/12 11:56:02;;;;;;;2.65;1.70;;;25.30;68.70;;;;;;4957620;28;20200;-64
2023/06/12 11:58:37;;;;;;;4.70;1.20;;;25.10;67.40;;;;;;4945596;28;20097;-69
2023/06/12 12:01:23;;;;;;;1.50;0.98;;;25.10;66.90;;;;;;4939342;28;20047;-67
2023/06/12 12:03:51;;;;;;;2.45;1.20;;;25.30;68.40;;;;;;4943552;28;20058;-66
2023/06/12 12:06:23;;;;;;;1.17;1.02;;;25.30;67.60;;;;;;4942509;28;20597;-67
2023/06/12 12:08:55;;;;;;;3.25;1.40;;;25.50;69.20;;;;;;4944417;28;20075;-64
2023/06/12 12:11:26;;;;;;;1.50;1.00;;;25.70;69.40;;;;;;4943558;28;20102;-64
2023/06/12 12:14:00;;;;;;;2.30;1.20;;;25.90;68.80;;;;;;4944553;28;20365;-67
2023/06/12 12:16:28;;;;;;;2.60;1.17;;;25.60;74.70;;;;;;4942357;28;20035;-68
2023/06/12 12:18:56;;;;;;;3.10;1.20;;;25.40;73.70;;;;;;4946430;28;20783;-64
2023/06/12 12:21:23;;;;;;;2.03;1.38;;;25.00;78.80;;;;;;4939903;28;20290;-64
2023/06/12 12:23:52;;;;;;;5.72;1.48;;;24.40;78.50;;;;;;4942680;28;20050;-65
2023/06/12 12:26:20;;;;;;;3.45;1.88;;;24.40;81.40;;;;;;4943795;28;20031;-69
2023/06/12 12:28:47;;;;;;;1.60;1.20;;;24.30;82.90;;;;;;4941105;28;20051;-68
2023/06/12 12:31:14;;;;;;;5.82;1.40;;;23.90;83.70;;;;;;4945257;28;20127;-64
2023/06/12 12:33:41;;;;;;;1.30;1.20;;;23.40;84.00;;;;;;4944175;28;20767;-64
2023/06/12 12:36:08;;;;;;;2.05;1.45;;;23.20;85.40;;;;;;4939655;28;20854;-67
2023/06/12 12:38:35;;;;;;;3.13;1.55;;;23.10;84.50;;;;;;4944780;28;20477;-67
2023/06/12 12:41:02;;;;;;;3.95;1.50;;;23.20;84.60;;;;;;4941056;28;20549;-71
2023/06/12 12:43:29;;;;;;;1.73;1.02;;;23.20;84.80;;;;;;4934653;28;20047;-64
2023/06/12 12:45:56;;;;;;;3.80;1.30;;;23.00;85.20;;;;;;4939362;28;20130;-65
2023/06/12 12:48:23;;;;;;;2.67;1.60;;;23.00;87.30;;;;;;4939802;28;20032;-64
2023/06/12 12:50:50;;;;;;;3.53;1.90;;;22.90;86.20;;;;;;4940559;28;20081;-65
2023/06/12 12:53:34;;;;;;;2.70;1.10;;;23.10;86.30;;;;;;4940991;28;20130;-65
2023/06/12 12:56:01;;;;;;;4.32;1.77;;;23.00;85.90;;;;;;4939426;28;20039;-73
2023/06/12 12:58:29;;;;;;;3.17;1.38;;;22.80;87.30;;;;;;4933740;28;20047;-64
2023/06/12 13:00:56;;;;;;;1.02;0.90;;;23.00;86.50;;;;;;4934867;28;20521;-66